Time;durP1;ratioP1;P1;durP2;ratioP2;P2;SDS_P1;SDS_P2;PMS_P1;PMS_P2;Temp;Humidity;BMP_temperature;BMP_pressure;BME280_temperature;BME280_humidity;BME280_pressure;Samples;Min_cycle;Max_cycle;Signal;HPM_P1;HPM_P2
2022/06/01 00:00:49;;;;;;;13.52;9.32;;;;;;;;;;5093768;28;20043;-87
2022/06/01 00:03:15;;;;;;;14.07;9.32;;;;;;;;;;5094285;28;20047;-85
2022/06/01 00:05:41;;;;;;;14.27;9.25;;;;;;;;;;5111272;28;20043;-85
2022/06/01 00:08:07;;;;;;;13.43;9.35;;;;;;;;;;5094401;28;20045;-86
2022/06/01 00:10:34;;;;;;;14.10;9.38;;;;;;;;;;5093914;28;20086;-84
2022/06/01 00:13:00;;;;;;;14.98;8.73;;;;;;;;;;5093967;28;20044;-86
2022/06/01 00:15:26;;;;;;;16.77;10.68;;;;;;;;;;5093981;28;20035;-85
2022/06/01 00:17:53;;;;;;;15.85;9.98;;;;;;;;;;5091277;28;20035;-85
2022/06/01 00:20:19;;;;;;;13.50;9.63;;;;;;;;;;5093556;28;20043;-84
2022/06/01 00:22:45;;;;;;;14.07;9.13;;;;;;;;;;5093755;28;20034;-84
2022/06/01 00:25:13;;;;;;;14.73;10.27;;;;;;;;;;5107694;28;20036;-84
2022/06/01 00:27:39;;;;;;;15.60;10.48;;;;;;;;;;5093510;28;20032;-84
2022/06/01 00:30:06;;;;;;;14.73;9.75;;;;;;;;;;5093672;28;20608;-84
2022/06/01 00:32:32;;;;;;;15.65;10.88;;;;;;;;;;5090961;28;20047;-85
2022/06/01 00:34:59;;;;;;;16.15;11.07;;;;;;;;;;5093802;28;20423;-85
2022/06/01 00:37:26;;;;;;;16.27;9.50;;;;;;;;;;5094033;28;20040;-85
2022/06/01 00:39:53;;;;;;;16.05;10.07;;;;;;;;;;5090527;28;20158;-85
2022/06/01 00:42:28;;;;;;;13.23;9.45;;;;;;;;;;5093262;28;20043;-85
2022/06/01 00:44:55;;;;;;;15.57;10.00;;;;;;;;;;5088186;28;20039;-85
2022/06/01 00:47:22;;;;;;;15.85;9.88;;;;;;;;;;5093497;28;20036;-84
2022/06/01 00:50:02;;;;;;;14.93;9.75;;;;;;;;;;5093180;28;20031;-85
2022/06/01 00:52:36;;;;;;;16.92;10.48;;;;;;;;;;5097014;28;20096;-85
2022/06/01 00:55:14;;;;;;;14.50;9.13;;;;;;;;;;5097523;28;20122;-85
2022/06/01 00:57:41;;;;;;;13.70;9.18;;;;;;;;;;5112789;28;20402;-85
2022/06/01 01:00:11;;;;;;;12.07;9.18;;;;;;;;;;5097425;28;20043;-85
2022/06/01 01:02:38;;;;;;;15.27;9.60;;;;;;;;;;5097615;28;20043;-85
2022/06/01 01:05:06;;;;;;;17.75;10.77;;;;;;;;;;5097059;28;20135;-84
2022/06/01 01:07:32;;;;;;;15.50;9.55;;;;;;;;;;5111325;28;20305;-84
2022/06/01 01:09:58;;;;;;;17.05;10.10;;;;;;;;;;5114045;28;20433;-85
2022/06/01 01:12:24;;;;;;;15.48;10.27;;;;;;;;;;5097234;28;20459;-84
2022/06/01 01:14:51;;;;;;;15.93;9.05;;;;;;;;;;5096862;28;20296;-85
2022/06/01 01:17:17;;;;;;;16.00;10.35;;;;;;;;;;5096957;28;20044;-85
2022/06/01 01:19:48;;;;;;;15.82;10.48;;;;;;;;;;5096958;28;20577;-84
2022/06/01 01:22:26;;;;;;;15.38;9.20;;;;;;;;;;5094741;28;20036;-85
2022/06/01 01:25:10;;;;;;;13.52;9.45;;;;;;;;;;5096787;28;20532;-85
2022/06/01 01:27:36;;;;;;;17.73;10.35;;;;;;;;;;5094856;28;20042;-85
2022/06/01 01:30:22;;;;;;;15.23;10.93;;;;;;;;;;5096739;28;20032;-84
2022/06/01 01:32:48;;;;;;;16.52;10.05;;;;;;;;;;5113500;28;20039;-85
2022/06/01 01:35:14;;;;;;;18.25;11.02;;;;;;;;;;5096882;28;20085;-86
2022/06/01 01:37:41;;;;;;;17.23;10.55;;;;;;;;;;5096827;28;20036;-86
2022/06/01 01:40:07;;;;;;;18.70;11.07;;;;;;;;;;5096757;28;21127;-85
2022/06/01 01:42:33;;;;;;;17.40;10.45;;;;;;;;;;5094283;28;20471;-86
2022/06/01 01:45:03;;;;;;;17.13;11.57;;;;;;;;;;5096427;28;20127;-85
2022/06/01 01:47:29;;;;;;;14.75;10.40;;;;;;;;;;5096419;28;20035;-85
2022/06/01 01:49:55;;;;;;;17.35;11.32;;;;;;;;;;5096563;28;20562;-85
2022/06/01 01:52:21;;;;;;;17.25;10.85;;;;;;;;;;5096689;28;20124;-85
2022/06/01 01:54:55;;;;;;;17.27;10.57;;;;;;;;;;5096428;28;20449;-85
2022/06/01 01:57:28;;;;;;;17.00;9.70;;;;;;;;;;5096553;28;20046;-85
2022/06/01 01:59:59;;;;;;;14.18;10.00;;;;;;;;;;5093824;28;20039;-85
2022/06/01 02:02:28;;;;;;;15.88;10.70;;;;;;;;;;5095636;28;20403;-85
2022/06/01 02:08:18;;;;;;;12.25;9.07;;;;;;;;;;5111020;28;20051;-85
2022/06/01 02:13:30;;;;;;;19.23;9.85;;;;;;;;;;5113378;28;20424;-85
2022/06/01 02:15:57;;;;;;;14.45;10.38;;;;;;;;;;5095760;28;20035;-85
2022/06/01 02:18:27;;;;;;;18.08;10.50;;;;;;;;;;5095863;28;20080;-86
2022/06/01 02:20:57;;;;;;;15.55;9.75;;;;;;;;;;5093477;28;20031;-86
2022/06/01 02:23:23;;;;;;;15.52;9.68;;;;;;;;;;5095991;28;20167;-86
2022/06/01 02:25:50;;;;;;;18.10;9.18;;;;;;;;;;5095846;28;20479;-86
2022/06/01 02:28:17;;;;;;;17.42;10.45;;;;;;;;;;5096313;28;20067;-87
2022/06/01 02:30:43;;;;;;;16.75;10.15;;;;;;;;;;5095858;28;20463;-87
2022/06/01 02:33:11;;;;;;;14.07;10.18;;;;;;;;;;5095776;28;20115;-87
2022/06/01 02:35:39;;;;;;;18.38;11.70;;;;;;;;;;5095900;28;20069;-83
2022/06/01 02:38:10;;;;;;;18.98;10.93;;;;;;;;;;5095585;28;20036;-82
2022/06/01 02:40:37;;;;;;;17.38;11.98;;;;;;;;;;5093108;28;20126;-83
2022/06/01 02:43:03;;;;;;;20.27;11.52;;;;;;;;;;5079146;28;20360;-84
2022/06/01 02:45:29;;;;;;;17.58;10.75;;;;;;;;;;5095776;28;20039;-83
2022/06/01 02:47:58;;;;;;;15.23;10.32;;;;;;;;;;5095820;28;20042;-82
2022/06/01 02:50:26;;;;;;;19.10;11.55;;;;;;;;;;5095730;28;20058;-85
2022/06/01 02:52:52;;;;;;;18.83;11.23;;;;;;;;;;5092513;28;20479;-84
2022/06/01 02:55:21;;;;;;;18.10;11.55;;;;;;;;;;5095395;28;20426;-86
2022/06/01 02:57:47;;;;;;;19.35;11.70;;;;;;;;;;5095157;28;20079;-85
2022/06/01 03:00:17;;;;;;;15.85;10.90;;;;;;;;;;5093006;28;20041;-86
2022/06/01 03:02:47;;;;;;;18.40;11.65;;;;;;;;;;5095715;28;20039;-86
2022/06/01 03:05:14;;;;;;;19.30;11.65;;;;;;;;;;5095364;28;20043;-85
2022/06/01 03:07:41;;;;;;;18.35;12.38;;;;;;;;;;5096013;28;20391;-85
2022/06/01 03:10:07;;;;;;;18.63;12.30;;;;;;;;;;5095202;28;20058;-85
2022/06/01 03:12:33;;;;;;;18.92;12.38;;;;;;;;;;5095393;28;20086;-85
2022/06/01 03:14:59;;;;;;;18.33;12.65;;;;;;;;;;5094363;28;20414;-84
2022/06/01 03:17:25;;;;;;;18.95;12.63;;;;;;;;;;5095332;28;20100;-84
2022/06/01 03:19:51;;;;;;;18.50;12.38;;;;;;;;;;5095516;28;20039;-80
2022/06/01 03:22:18;;;;;;;19.63;12.50;;;;;;;;;;5095357;28;20484;-85
2022/06/01 03:24:44;;;;;;;19.15;11.63;;;;;;;;;;5095112;28;20180;-85
2022/06/01 03:27:10;;;;;;;17.05;12.30;;;;;;;;;;5095061;28;20035;-86
2022/06/01 03:29:36;;;;;;;18.48;12.43;;;;;;;;;;5095206;28;20467;-85
2022/06/01 03:32:02;;;;;;;18.63;12.57;;;;;;;;;;5095253;28;20039;-82
2022/06/01 03:34:30;;;;;;;21.40;12.80;;;;;;;;;;5095108;28;20057;-84
2022/06/01 03:36:57;;;;;;;20.20;11.95;;;;;;;;;;5094931;28;20474;-84
2022/06/01 03:39:23;;;;;;;19.35;12.35;;;;;;;;;;5094783;28;20098;-87
2022/06/01 03:41:49;;;;;;;17.08;12.55;;;;;;;;;;5094783;28;20052;-86
2022/06/01 03:47:09;;;;;;;20.83;12.77;;;;;;;;;;5111630;28;20507;-86
2022/06/01 03:49:35;;;;;;;20.40;13.02;;;;;;;;;;5094924;28;20039;-86
2022/06/01 03:52:01;;;;;;;23.83;12.82;;;;;;;;;;5094624;28;20491;-86
2022/06/01 03:54:27;;;;;;;17.27;12.07;;;;;;;;;;5094542;28;20043;-86
2022/06/01 03:56:53;;;;;;;17.83;11.57;;;;;;;;;;5094403;28;20066;-86
2022/06/01 03:59:19;;;;;;;18.40;11.98;;;;;;;;;;5094852;28;20077;-86
2022/06/01 04:01:45;;;;;;;17.63;12.30;;;;;;;;;;5094657;28;20070;-86
2022/06/01 04:04:11;;;;;;;20.42;11.73;;;;;;;;;;5094252;28;20039;-85
2022/06/01 04:06:37;;;;;;;16.65;11.65;;;;;;;;;;5094396;28;20089;-85
2022/06/01 04:09:03;;;;;;;19.92;12.77;;;;;;;;;;5111239;28;20043;-86
2022/06/01 04:11:29;;;;;;;20.90;12.43;;;;;;;;;;5094329;28;20474;-85
2022/06/01 04:13:55;;;;;;;20.77;13.20;;;;;;;;;;5111269;28;20047;-86
2022/06/01 04:16:21;;;;;;;18.83;12.95;;;;;;;;;;5094478;28;20043;-86
2022/06/01 04:18:47;;;;;;;19.67;13.27;;;;;;;;;;5094278;28;20039;-85
2022/06/01 04:21:14;;;;;;;19.88;12.68;;;;;;;;;;5094367;28;20487;-85
2022/06/01 04:23:40;;;;;;;16.90;12.88;;;;;;;;;;5094053;28;20101;-85
2022/06/01 04:26:06;;;;;;;22.75;14.27;;;;;;;;;;5110980;28;20036;-85
2022/06/01 04:28:32;;;;;;;24.33;13.85;;;;;;;;;;5094036;28;20053;-86
2022/06/01 04:30:59;;;;;;;17.40;13.10;;;;;;;;;;5111340;28;20082;-85
2022/06/01 04:33:26;;;;;;;18.33;13.02;;;;;;;;;;5094109;28;20123;-85
2022/06/01 04:35:52;;;;;;;19.27;12.93;;;;;;;;;;5093868;28;20040;-85
2022/06/01 04:38:18;;;;;;;19.13;13.52;;;;;;;;;;5093785;28;20126;-85
2022/06/01 04:40:45;;;;;;;19.60;12.77;;;;;;;;;;5093830;28;20138;-85
2022/06/01 04:43:12;;;;;;;19.58;12.80;;;;;;;;;;5093753;28;20040;-85
2022/06/01 04:45:38;;;;;;;18.35;12.63;;;;;;;;;;5094062;28;20039;-85
2022/06/01 04:48:04;;;;;;;19.27;12.85;;;;;;;;;;5111004;28;20483;-85
2022/06/01 04:50:30;;;;;;;21.15;13.88;;;;;;;;;;5094096;28;20095;-84
2022/06/01 04:52:56;;;;;;;18.75;13.18;;;;;;;;;;5094209;28;20028;-86
2022/06/01 04:55:23;;;;;;;20.85;13.35;;;;;;;;;;5093743;28;20089;-86
2022/06/01 04:57:49;;;;;;;22.40;13.88;;;;;;;;;;5093739;28;20192;-86
2022/06/01 05:00:15;;;;;;;19.90;13.32;;;;;;;;;;5093951;28;20040;-87
2022/06/01 05:02:42;;;;;;;19.63;12.73;;;;;;;;;;5093635;28;20146;-86
2022/06/01 05:05:08;;;;;;;19.50;13.52;;;;;;;;;;5110618;28;20049;-87
2022/06/01 05:07:34;;;;;;;20.23;14.05;;;;;;;;;;5093675;28;20039;-84
2022/06/01 05:10:00;;;;;;;22.77;14.15;;;;;;;;;;5093798;28;20039;-84
2022/06/01 05:12:26;;;;;;;18.48;13.10;;;;;;;;;;5093627;28;20040;-86
2022/06/01 05:14:52;;;;;;;22.77;14.32;;;;;;;;;;5093763;28;20357;-85
2022/06/01 05:17:19;;;;;;;18.73;13.73;;;;;;;;;;5093724;28;20126;-86
2022/06/01 05:19:45;;;;;;;18.73;14.50;;;;;;;;;;5093581;28;20409;-86
2022/06/01 05:22:11;;;;;;;22.13;14.27;;;;;;;;;;5110673;28;20043;-85
2022/06/01 05:24:37;;;;;;;24.15;14.38;;;;;;;;;;5093446;28;20552;-82
2022/06/01 05:27:03;;;;;;;23.83;14.82;;;;;;;;;;5090220;28;20150;-84
2022/06/01 05:29:29;;;;;;;22.52;14.05;;;;;;;;;;5089998;28;20505;-85
2022/06/01 05:31:55;;;;;;;22.10;13.85;;;;;;;;;;5089560;28;20046;-86
2022/06/01 05:34:21;;;;;;;16.98;13.02;;;;;;;;;;5090346;28;20036;-84
2022/06/01 05:36:47;;;;;;;20.15;13.25;;;;;;;;;;5090528;28;20127;-86
2022/06/01 05:39:13;;;;;;;18.88;13.23;;;;;;;;;;5093885;28;20548;-86
2022/06/01 05:41:40;;;;;;;23.08;14.25;;;;;;;;;;5093582;28;20043;-86
2022/06/01 05:44:06;;;;;;;20.02;14.13;;;;;;;;;;5093544;28;20044;-86
2022/06/01 05:46:35;;;;;;;20.00;13.77;;;;;;;;;;5093861;28;20039;-86
2022/06/01 05:49:01;;;;;;;23.35;13.73;;;;;;;;;;5093440;28;20043;-86
2022/06/01 05:51:27;;;;;;;22.45;14.55;;;;;;;;;;5093459;28;20145;-86
2022/06/01 05:53:53;;;;;;;20.88;13.85;;;;;;;;;;5093532;28;20044;-87
2022/06/01 05:56:19;;;;;;;19.92;13.63;;;;;;;;;;5093608;28;20051;-84
2022/06/01 05:58:47;;;;;;;21.25;13.77;;;;;;;;;;5093190;28;20102;-85
2022/06/01 06:01:13;;;;;;;19.17;13.93;;;;;;;;;;5093263;28;20043;-86
2022/06/01 06:03:39;;;;;;;21.13;12.48;;;;;;;;;;5093373;28;20479;-86
2022/06/01 06:06:12;;;;;;;19.25;12.45;;;;;;;;;;5110297;28;20043;-85
2022/06/01 06:08:38;;;;;;;19.45;12.38;;;;;;;;;;5093142;28;20039;-84
2022/06/01 06:11:06;;;;;;;21.88;13.20;;;;;;;;;;5093435;28;20044;-85
2022/06/01 06:13:33;;;;;;;16.92;10.75;;;;;;;;;;5095231;28;20557;-86
2022/06/01 06:15:59;;;;;;;18.30;12.45;;;;;;;;;;5097746;28;20483;-86
2022/06/01 06:18:25;;;;;;;19.80;11.48;;;;;;;;;;5097304;28;20047;-85
2022/06/01 06:20:51;;;;;;;19.33;12.27;;;;;;;;;;5097640;28;20138;-85
2022/06/01 06:23:20;;;;;;;18.88;11.65;;;;;;;;;;5114180;28;20040;-86
2022/06/01 06:25:46;;;;;;;16.80;10.50;;;;;;;;;;5114661;28;20047;-86
2022/06/01 06:28:12;;;;;;;17.63;11.38;;;;;;;;;;5095857;28;20040;-85
2022/06/01 06:30:39;;;;;;;16.98;11.25;;;;;;;;;;5092420;28;20044;-87
2022/06/01 06:33:05;;;;;;;19.08;11.73;;;;;;;;;;5093625;28;20122;-86
2022/06/01 06:35:32;;;;;;;15.02;10.23;;;;;;;;;;5095656;28;20065;-86
2022/06/01 06:37:58;;;;;;;16.48;10.13;;;;;;;;;;5095761;28;20112;-85
2022/06/01 06:40:24;;;;;;;15.98;10.68;;;;;;;;;;5095914;28;20555;-85
2022/06/01 06:42:51;;;;;;;15.88;10.57;;;;;;;;;;5095968;28;20519;-86
2022/06/01 06:45:17;;;;;;;19.50;11.77;;;;;;;;;;5112760;28;20086;-85
2022/06/01 06:47:43;;;;;;;15.70;10.07;;;;;;;;;;5095970;28;20039;-86
2022/06/01 06:50:11;;;;;;;16.20;10.68;;;;;;;;;;5095686;28;20067;-87
2022/06/01 06:52:37;;;;;;;15.27;10.77;;;;;;;;;;5096100;28;20127;-85
2022/06/01 06:55:03;;;;;;;14.43;10.07;;;;;;;;;;5095845;28;20502;-87
2022/06/01 06:57:29;;;;;;;16.23;10.75;;;;;;;;;;5095961;28;20040;-88
2022/06/01 06:59:55;;;;;;;16.45;11.02;;;;;;;;;;5096083;28;20084;-86
2022/06/01 07:02:21;;;;;;;13.23;10.43;;;;;;;;;;5095986;28;20376;-88
2022/06/01 07:04:47;;;;;;;14.68;10.15;;;;;;;;;;5095721;28;20039;-88
2022/06/01 07:07:17;;;;;;;15.98;11.10;;;;;;;;;;5095843;28;20039;-87
2022/06/01 07:09:43;;;;;;;15.45;10.52;;;;;;;;;;5095620;28;20075;-87
2022/06/01 07:12:10;;;;;;;15.80;11.32;;;;;;;;;;5096009;28;20039;-88
2022/06/01 07:14:36;;;;;;;14.80;9.95;;;;;;;;;;5095554;28;20039;-85
2022/06/01 07:17:02;;;;;;;15.38;9.77;;;;;;;;;;5095834;28;20046;-84
2022/06/01 07:19:28;;;;;;;12.95;9.38;;;;;;;;;;5095267;28;20053;-83
2022/06/01 07:21:55;;;;;;;13.02;8.90;;;;;;;;;;5095630;28;20462;-84
2022/06/01 07:24:21;;;;;;;11.10;8.60;;;;;;;;;;5112187;28;20380;-88
2022/06/01 07:26:47;;;;;;;13.90;8.57;;;;;;;;;;5095570;28;20036;-83
2022/06/01 07:29:15;;;;;;;11.18;8.93;;;;;;;;;;5095311;28;20126;-83
2022/06/01 07:31:41;;;;;;;10.85;8.43;;;;;;;;;;5112455;28;20035;-87
2022/06/01 07:34:07;;;;;;;12.00;9.18;;;;;;;;;;5094961;28;20043;-86
2022/06/01 07:36:34;;;;;;;12.35;8.20;;;;;;;;;;5095335;28;20570;-85
2022/06/01 07:44:32;;;;;;;10.60;7.32;;;;;;;;;;5111668;28;20043;-88
2022/06/01 07:46:59;;;;;;;10.63;7.68;;;;;;;;;;5094996;28;20040;-86
2022/06/01 07:49:26;;;;;;;11.07;8.15;;;;;;;;;;5078082;28;20075;-84
2022/06/01 07:51:54;;;;;;;9.15;6.63;;;;;;;;;;5094773;28;20079;-85
2022/06/01 07:54:20;;;;;;;10.68;7.63;;;;;;;;;;5094865;28;20592;-85
2022/06/01 07:56:46;;;;;;;11.77;7.93;;;;;;;;;;5111456;28;20036;-84
2022/06/01 07:59:13;;;;;;;9.63;8.15;;;;;;;;;;5094180;28;20441;-85
2022/06/01 08:01:39;;;;;;;10.75;7.78;;;;;;;;;;5094626;28;20524;-84
2022/06/01 08:04:06;;;;;;;12.85;8.52;;;;;;;;;;5094271;28;20040;-85
2022/06/01 08:06:33;;;;;;;11.50;8.50;;;;;;;;;;5111314;28;20036;-85
2022/06/01 08:08:59;;;;;;;10.93;8.23;;;;;;;;;;5094328;28;20042;-85
2022/06/01 08:14:11;;;;;;;12.07;9.43;;;;;;;;;;5111399;28;20498;-86
2022/06/01 08:16:38;;;;;;;10.40;7.70;;;;;;;;;;5111264;28;20122;-86
2022/06/01 08:19:04;;;;;;;12.20;9.20;;;;;;;;;;5094238;28;20043;-87
2022/06/01 08:21:30;;;;;;;12.77;9.25;;;;;;;;;;5094099;28;20048;-87
2022/06/01 08:23:56;;;;;;;14.02;9.13;;;;;;;;;;5094539;28;20479;-83
2022/06/01 08:26:22;;;;;;;13.43;8.63;;;;;;;;;;5111475;28;20092;-84
2022/06/01 08:28:48;;;;;;;13.23;9.05;;;;;;;;;;5093969;28;20048;-85
2022/06/01 08:31:15;;;;;;;14.20;9.77;;;;;;;;;;5111531;28;20039;-84
2022/06/01 08:33:41;;;;;;;14.02;10.10;;;;;;;;;;5094240;28;20130;-84
2022/06/01 08:36:07;;;;;;;16.42;10.50;;;;;;;;;;5111082;28;20043;-83
2022/06/01 08:38:34;;;;;;;12.45;9.40;;;;;;;;;;5094233;28;20402;-82
2022/06/01 08:41:03;;;;;;;10.32;6.40;;;;;;;;;;5094309;28;20087;-85
2022/06/01 08:43:31;;;;;;;8.15;6.43;;;;;;;;;;5094082;28;20044;-83
2022/06/01 08:45:59;;;;;;;10.35;7.60;;;;;;;;;;5093866;28;20552;-84
2022/06/01 08:48:45;;;;;;;15.45;9.60;;;;;;;;;;5093971;28;20093;-84
2022/06/01 08:51:11;;;;;;;10.52;7.00;;;;;;;;;;5083257;28;20043;-82
2022/06/01 08:53:37;;;;;;;8.65;5.95;;;;;;;;;;5094087;28;20035;-84
2022/06/01 08:56:15;;;;;;;4.45;3.67;;;;;;;;;;5094169;28;20051;-81
2022/06/01 08:58:47;;;;;;;2.88;2.30;;;;;;;;;;5093761;28;20071;-84
2022/06/01 09:01:17;;;;;;;2.92;2.15;;;;;;;;;;5093940;28;20110;-86
2022/06/01 09:03:50;;;;;;;2.85;2.22;;;;;;;;;;5111182;28;20480;-85
2022/06/01 09:06:20;;;;;;;2.22;2.00;;;;;;;;;;5093664;28;20040;-86
2022/06/01 09:08:49;;;;;;;2.00;1.80;;;;;;;;;;5094239;28;20093;-85
2022/06/01 09:11:17;;;;;;;2.60;2.17;;;;;;;;;;5093976;28;20032;-85
2022/06/01 09:13:49;;;;;;;2.50;1.88;;;;;;;;;;5097245;28;20536;-84
2022/06/01 09:16:19;;;;;;;1.80;1.70;;;;;;;;;;5097558;28;20074;-81
2022/06/01 09:18:48;;;;;;;2.00;1.90;;;;;;;;;;5097340;28;20035;-84
2022/06/01 09:24:34;;;;;;;3.08;1.95;;;;;;;;;;5054823;28;20075;-83
2022/06/01 09:27:05;;;;;;;2.05;1.88;;;;;;;;;;5091424;28;20067;-83
2022/06/01 09:29:32;;;;;;;;;;;;;;;;;;5097594;28;20039;-82
2022/06/01 09:32:00;;;;;;;2.10;1.90;;;;;;;;;;5111203;28;20359;-84
2022/06/01 09:34:38;;;;;;;1.90;1.80;;;;;;;;;;5096890;28;20035;-83
2022/06/01 09:37:13;;;;;;;3.35;2.80;;;;;;;;;;5094952;28;20036;-83
2022/06/01 09:39:48;;;;;;;4.05;2.95;;;;;;;;;;5094715;28;20056;-86
2022/06/01 09:42:23;;;;;;;2.70;2.40;;;;;;;;;;5113972;28;20047;-84
2022/06/01 09:44:49;;;;;;;3.90;3.40;;;;;;;;;;5096720;28;20117;-84
2022/06/01 09:47:26;;;;;;;4.85;3.50;;;;;;;;;;5096515;28;20054;-84
2022/06/01 09:49:53;;;;;;;3.00;2.80;;;;;;;;;;5096789;28;20075;-84
2022/06/01 09:52:27;;;;;;;3.55;2.47;;;;;;;;;;5093878;28;20059;-86
2022/06/01 09:54:55;;;;;;;3.10;2.45;;;;;;;;;;5113423;28;20440;-87
2022/06/01 09:57:21;;;;;;;3.45;2.08;;;;;;;;;;5096383;28;20046;-85
2022/06/01 10:08:14;;;;;;;1.63;1.50;;;;;;;;;;5109474;28;20399;-84
2022/06/01 10:10:41;;;;;;;2.53;2.00;;;;;;;;;;5094034;28;20054;-86
2022/06/01 10:13:07;;;;;;;2.47;2.10;;;;;;;;;;5113726;28;20039;-85
2022/06/01 10:15:42;;;;;;;2.20;1.50;;;;;;;;;;5113241;28;20036;-85
2022/06/01 10:18:22;;;;;;;3.03;2.00;;;;;;;;;;5094893;28;20089;-85
2022/06/01 10:20:50;;;;;;;2.30;1.80;;;;;;;;;;5094853;28;20403;-84
2022/06/01 10:23:16;;;;;;;3.05;2.35;;;;;;;;;;5095237;28;20035;-83
2022/06/01 10:25:45;;;;;;;2.13;1.92;;;;;;;;;;5096158;28;20050;-83
2022/06/01 10:28:14;;;;;;;2.90;2.17;;;;;;;;;;5096379;28;20077;-83
2022/06/01 10:30:44;;;;;;;2.53;1.92;;;;;;;;;;5092989;28;20514;-86
2022/06/01 10:33:14;;;;;;;3.20;2.80;;;;;;;;;;5096184;28;20406;-82
2022/06/01 10:35:53;;;;;;;2.85;2.50;;;;;;;;;;5110054;28;20092;-84
2022/06/01 10:38:27;;;;;;;5.15;3.00;;;;;;;;;;5111759;28;20032;-85
2022/06/01 10:41:07;;;;;;;4.25;3.15;;;;;;;;;;5095139;28;20142;-82
2022/06/01 10:43:33;;;;;;;3.33;2.78;;;;;;;;;;5095275;28;20039;-86
2022/06/01 10:46:03;;;;;;;2.97;2.65;;;;;;;;;;5109784;28;20035;-83
2022/06/01 10:48:29;;;;;;;;;;;;;;;;;;5096179;28;20028;-85
2022/06/01 10:50:55;;;;;;;2.40;2.20;;;;;;;;;;5095435;28;20374;-85
2022/06/01 10:53:40;;;;;;;3.30;2.88;;;;;;;;;;5095626;28;20031;-84
2022/06/01 10:56:07;;;;;;;3.55;2.30;;;;;;;;;;5094949;28;20027;-86
2022/06/01 10:58:33;;;;;;;3.95;3.28;;;;;;;;;;5113642;28;20031;-84
2022/06/01 11:01:08;;;;;;;4.95;3.63;;;;;;;;;;5097021;28;20042;-89
2022/06/01 11:03:40;;;;;;;3.55;2.83;;;;;;;;;;5095017;28;20042;-84
2022/06/01 11:06:06;;;;;;;4.93;3.40;;;;;;;;;;5097391;28;20115;-89
2022/06/01 11:08:51;;;;;;;3.60;3.25;;;;;;;;;;5111991;28;20114;-83
2022/06/01 11:11:23;;;;;;;3.70;2.97;;;;;;;;;;5093814;28;20110;-83
2022/06/01 11:13:52;;;;;;;3.90;3.38;;;;;;;;;;5092477;28;20036;-83
2022/06/01 11:16:27;;;;;;;4.43;3.55;;;;;;;;;;5095085;28;20043;-85
2022/06/01 11:18:59;;;;;;;5.10;4.60;;;;;;;;;;5092857;28;20109;-83
2022/06/01 11:21:25;;;;;;;5.72;4.53;;;;;;;;;;5094728;28;20046;-84
2022/06/01 11:23:54;;;;;;;4.90;3.88;;;;;;;;;;5094821;28;20483;-84
2022/06/01 11:26:29;;;;;;;5.20;3.58;;;;;;;;;;5094623;28;20544;-84
2022/06/01 11:29:07;;;;;;;4.80;3.83;;;;;;;;;;5093237;28;20064;-85
2022/06/01 11:31:34;;;;;;;5.30;4.05;;;;;;;;;;5109772;28;20035;-84
2022/06/01 11:34:14;;;;;;;6.93;4.43;;;;;;;;;;5111605;28;20040;-84
2022/06/01 11:36:46;;;;;;;6.32;3.20;;;;;;;;;;5094244;28;20475;-83
2022/06/01 11:39:15;;;;;;;5.65;2.83;;;;;;;;;;5093450;28;20531;-85
2022/06/01 11:41:43;;;;;;;4.40;2.83;;;;;;;;;;5095173;28;21058;-83
2022/06/01 11:44:23;;;;;;;2.70;1.95;;;;;;;;;;5092557;28;20042;-85
2022/06/01 11:47:03;;;;;;;2.83;1.60;;;;;;;;;;5091948;28;20039;-82
2022/06/01 11:49:41;;;;;;;2.33;1.52;;;;;;;;;;5095432;28;20399;-86
2022/06/01 11:52:26;;;;;;;2.35;1.48;;;;;;;;;;5094954;28;20503;-83
2022/06/01 11:55:11;;;;;;;3.90;1.67;;;;;;;;;;5094322;28;20097;-82
2022/06/01 11:58:06;;;;;;;3.15;2.25;;;;;;;;;;5108710;28;20050;-82
2022/06/01 12:00:35;;;;;;;2.67;2.03;;;;;;;;;;5081108;28;20059;-79
2022/06/01 12:03:21;;;;;;;4.22;3.03;;;;;;;;;;5093858;28;20035;-80
2022/06/01 12:05:59;;;;;;;4.50;4.05;;;;;;;;;;5092679;28;20044;-80
2022/06/01 12:08:48;;;;;;;5.80;4.20;;;;;;;;;;5109599;28;20066;-80
2022/06/01 12:11:33;;;;;;;5.13;4.30;;;;;;;;;;5086046;28;20487;-79
2022/06/01 12:13:59;;;;;;;6.65;4.80;;;;;;;;;;5092369;28;20047;-80
2022/06/01 12:16:27;;;;;;;4.97;3.50;;;;;;;;;;5111292;28;20051;-80
2022/06/01 12:19:13;;;;;;;3.75;3.20;;;;;;;;;;5110776;28;20043;-79
2022/06/01 12:21:42;;;;;;;4.22;3.00;;;;;;;;;;5101121;28;20108;-80
2022/06/01 12:30:13;;;;;;;4.38;3.30;;;;;;;;;;5112380;28;20048;-79
2022/06/01 12:33:00;;;;;;;5.40;3.00;;;;;;;;;;5094014;28;20073;-83
2022/06/01 12:35:31;;;;;;;2.95;2.55;;;;;;;;;;5093946;28;20389;-82
2022/06/01 12:38:07;;;;;;;3.03;1.90;;;;;;;;;;5093958;28;20166;-84
2022/06/01 12:40:34;;;;;;;1.73;1.23;;;;;;;;;;5093814;28;20108;-84
2022/06/01 12:43:02;;;;;;;2.47;1.20;;;;;;;;;;5094689;28;20042;-89
2022/06/01 12:45:39;;;;;;;1.58;1.10;;;;;;;;;;5095030;28;20090;-85
2022/06/01 12:48:16;;;;;;;1.00;0.90;;;;;;;;;;5101157;28;20079;-88
2022/06/01 12:51:02;;;;;;;2.47;1.75;;;;;;;;;;5101596;28;20040;-86
2022/06/01 12:53:40;;;;;;;2.55;1.73;;;;;;;;;;5101492;28;20049;-88
2022/06/01 12:56:13;;;;;;;1.67;1.58;;;;;;;;;;5100950;28;20035;-83
2022/06/01 12:58:42;;;;;;;3.47;2.03;;;;;;;;;;5100988;28;20039;-87
2022/06/01 13:01:08;;;;;;;3.30;2.70;;;;;;;;;;5100613;28;20402;-83
2022/06/01 13:03:34;;;;;;;2.90;2.55;;;;;;;;;;5117855;28;20069;-81
2022/06/01 13:06:02;;;;;;;2.90;2.70;;;;;;;;;;5100717;28;20035;-85
2022/06/01 13:08:33;;;;;;;3.95;3.55;;;;;;;;;;5100827;28;20043;-85
2022/06/01 13:11:20;;;;;;;4.43;3.80;;;;;;;;;;5101585;28;20180;-84
2022/06/01 13:13:46;;;;;;;6.18;4.82;;;;;;;;;;5091133;28;20055;-82
2022/06/01 13:16:12;;;;;;;5.45;3.67;;;;;;;;;;5100918;28;20047;-83
2022/06/01 13:18:40;;;;;;;4.65;2.88;;;;;;;;;;5100638;28;20043;-82
2022/06/01 13:21:12;;;;;;;4.05;2.50;;;;;;;;;;5100759;28;20126;-89
2022/06/01 13:23:46;;;;;;;2.40;2.20;;;;;;;;;;5117883;28;20047;-85
2022/06/01 13:26:15;;;;;;;2.42;2.22;;;;;;;;;;5100931;28;20448;-87
2022/06/01 13:28:45;;;;;;;2.50;2.30;;;;;;;;;;5100677;28;20032;-85
2022/06/01 13:31:11;;;;;;;1.55;1.45;;;;;;;;;;5101030;28;20501;-87
2022/06/01 13:33:39;;;;;;;1.40;1.30;;;;;;;;;;5100623;28;20053;-85
2022/06/01 13:36:07;;;;;;;1.60;1.30;;;;;;;;;;5100588;28;20499;-81
2022/06/01 13:38:35;;;;;;;1.20;1.10;;;;;;;;;;5084059;28;20070;-83
2022/06/01 13:41:04;;;;;;;2.50;1.15;;;;;;;;;;5101035;28;20051;-87
2022/06/01 13:43:30;;;;;;;1.05;0.95;;;;;;;;;;5100758;28;20104;-88
2022/06/01 13:45:58;;;;;;;1.50;0.93;;;;;;;;;;5101083;28;20035;-88
2022/06/01 13:48:32;;;;;;;2.35;1.20;;;;;;;;;;5101279;28;20096;-88
2022/06/01 13:51:00;;;;;;;1.15;1.00;;;;;;;;;;5081911;28;20493;-86
2022/06/01 13:53:29;;;;;;;1.27;1.00;;;;;;;;;;5081518;28;20054;-86
2022/06/01 13:56:00;;;;;;;1.20;1.10;;;;;;;;;;5081258;28;20040;-82
2022/06/01 13:58:32;;;;;;;1.45;1.17;;;;;;;;;;5095258;28;20491;-86
2022/06/01 14:01:10;;;;;;;1.40;1.30;;;;;;;;;;5078363;28;20131;-85
2022/06/01 14:03:41;;;;;;;3.03;1.58;;;;;;;;;;5078428;28;20039;-89
2022/06/01 14:06:08;;;;;;;1.25;1.15;;;;;;;;;;5078053;28;20043;-89
2022/06/01 14:08:50;;;;;;;1.30;1.20;;;;;;;;;;5094424;28;20051;-87
2022/06/01 14:11:20;;;;;;;1.15;1.08;;;;;;;;;;5077068;28;20059;-88
2022/06/01 14:13:47;;;;;;;1.80;1.30;;;;;;;;;;5093667;28;20059;-82
2022/06/01 14:16:15;;;;;;;1.13;1.02;;;;;;;;;;5076733;28;20043;-86
2022/06/01 14:18:41;;;;;;;1.33;1.23;;;;;;;;;;5093017;28;20036;-80
2022/06/01 14:21:08;;;;;;;1.10;1.00;;;;;;;;;;5076032;28;20036;-93
2022/06/01 14:23:34;;;;;;;1.83;1.48;;;;;;;;;;5072852;28;20044;-85
2022/06/01 14:28:47;;;;;;;1.33;1.23;;;;;;;;;;5089510;28;20040;-85
2022/06/01 14:31:15;;;;;;;1.58;1.48;;;;;;;;;;5073565;28;20052;-90
2022/06/01 14:33:42;;;;;;;1.67;1.58;;;;;;;;;;5094510;28;20491;-82
2022/06/01 14:36:09;;;;;;;2.05;1.85;;;;;;;;;;5077392;28;20447;-80
2022/06/01 14:38:35;;;;;;;2.40;2.20;;;;;;;;;;5077039;28;20051;-82
2022/06/01 14:41:04;;;;;;;2.90;2.30;;;;;;;;;;5060210;28;20132;-80
2022/06/01 14:43:37;;;;;;;2.40;1.92;;;;;;;;;;5077102;28;20043;-87
2022/06/01 14:46:11;;;;;;;2.60;2.15;;;;;;;;;;5061671;28;20142;-87
2022/06/01 14:48:37;;;;;;;1.98;1.88;;;;;;;;;;5061731;28;20491;-83
2022/06/01 14:51:07;;;;;;;2.45;2.25;;;;;;;;;;5093818;28;20043;-91
2022/06/01 14:53:35;;;;;;;2.53;2.33;;;;;;;;;;5077789;28;20042;-88
2022/06/01 14:56:01;;;;;;;2.88;2.20;;;;;;;;;;5078635;28;20089;-88
2022/06/01 14:58:28;;;;;;;2.72;2.47;;;;;;;;;;5077381;28;20048;-86
2022/06/01 15:01:17;;;;;;;3.13;2.30;;;;;;;;;;5075226;28;20481;-89
2022/06/01 15:03:52;;;;;;;3.28;2.55;;;;;;;;;;5075688;28;20078;-82
2022/06/01 15:06:18;;;;;;;3.05;2.38;;;;;;;;;;5074646;28;20048;-83
2022/06/01 15:08:46;;;;;;;3.28;2.65;;;;;;;;;;5071991;28;20055;-85
2022/06/01 15:11:12;;;;;;;3.53;2.80;;;;;;;;;;5071310;28;20040;-85
2022/06/01 15:13:38;;;;;;;4.93;2.80;;;;;;;;;;5071945;28;20517;-82
2022/06/01 15:16:05;;;;;;;3.50;2.40;;;;;;;;;;5071977;28;20036;-87
2022/06/01 15:18:33;;;;;;;2.80;2.28;;;;;;;;;;5072209;28;20479;-89